createdAt,value
2019-01-26T00:01:32.252Z,99967.50
2019-01-26T00:04:00.522Z,99965.38
2019-01-26T00:06:28.793Z,99967.77
2019-01-26T00:08:57.062Z,99962.20
2019-01-26T00:11:25.340Z,99971.30
2019-01-26T00:13:53.621Z,99962.80
2019-01-26T00:16:21.882Z,99951.31
2019-01-26T00:18:50.178Z,99953.80
2019-01-26T00:21:18.439Z,99955.49
2019-01-26T00:23:46.705Z,99957.33
2019-01-26T00:26:14.976Z,99949.06
2019-01-26T00:28:43.254Z,99945.20
2019-01-26T00:31:11.524Z,99940.92
2019-01-26T00:33:43.286Z,99928.81
2019-01-26T00:36:10.493Z,99925.25
2019-01-26T00:38:38.758Z,99916.47
2019-01-26T00:41:07.043Z,99917.83
2019-01-26T00:43:35.318Z,99918.70
2019-01-26T00:46:03.587Z,99911.75
2019-01-26T00:48:31.864Z,99913.14
2019-01-26T00:51:00.141Z,99908.69
2019-01-26T00:53:28.497Z,99901.84
2019-01-26T00:55:56.777Z,99896.98
2019-01-26T00:58:25.046Z,99896.60
2019-01-26T01:00:53.326Z,99888.42
2019-01-26T01:03:21.607Z,99892.81
2019-01-26T01:05:49.884Z,99888.73
2019-01-26T01:08:18.157Z,99884.91
2019-01-26T01:10:46.499Z,99873.31
2019-01-26T01:13:14.775Z,99862.38
2019-01-26T01:15:43.065Z,99861.31
2019-01-26T01:18:11.346Z,99858.91
2019-01-26T01:20:39.631Z,99859.44
2019-01-26T01:23:07.890Z,99857.13
2019-01-26T01:25:36.171Z,99860.44
2019-01-26T01:28:04.607Z,99860.47
2019-01-26T01:30:32.869Z,99858.13
2019-01-26T01:33:01.131Z,99857.87
2019-01-26T01:35:29.414Z,99857.84
2019-01-26T01:37:57.673Z,99855.77
2019-01-26T01:40:25.961Z,99859.56
2019-01-26T01:42:54.217Z,99859.12
2019-01-26T01:46:02.536Z,99853.39
2019-01-26T01:48:30.808Z,99854.53
2019-01-26T01:50:59.072Z,99858.32
2019-01-26T01:53:27.340Z,99851.50
2019-01-26T01:55:55.624Z,99857.44
2019-01-26T01:58:23.917Z,99856.09
2019-01-26T02:00:52.185Z,99840.18
2019-01-26T02:03:20.446Z,99839.20
2019-01-26T02:05:48.714Z,99838.18
2019-01-26T02:08:16.980Z,99834.70
2019-01-26T02:10:45.262Z,99830.48
2019-01-26T02:13:13.525Z,99824.86
2019-01-26T02:15:41.784Z,99823.14
2019-01-26T02:18:10.119Z,99826.52
2019-01-26T02:20:38.400Z,99820.02
2019-01-26T02:23:06.668Z,99819.52
2019-01-26T02:25:34.927Z,99812.52
2019-01-26T02:28:03.203Z,99812.44
2019-01-26T02:30:31.474Z,99805.94
2019-01-26T02:32:59.782Z,99817.46
2019-01-26T02:35:28.050Z,99818.67
2019-01-26T02:37:56.322Z,99820.73
2019-01-26T02:40:24.584Z,99827.00
2019-01-26T02:42:52.852Z,99819.98
2019-01-26T02:45:21.139Z,99816.50
2019-01-26T02:47:49.371Z,99817.70
2019-01-26T02:50:36.973Z,99822.04
2019-01-26T02:53:05.256Z,99834.78
2019-01-26T02:55:33.516Z,99822.81
2019-01-26T02:58:01.764Z,99822.18
2019-01-26T03:00:30.033Z,99823.63
2019-01-26T03:02:58.292Z,99825.60
2019-01-26T03:05:26.570Z,99815.20
2019-01-26T03:07:54.830Z,99810.38
2019-01-26T03:11:03.143Z,99808.58
2019-01-26T03:13:31.408Z,99806.00
2019-01-26T03:15:59.662Z,99804.07
2019-01-26T03:18:27.950Z,99810.70
2019-01-26T03:20:56.213Z,99811.02
2019-01-26T03:23:24.674Z,99813.34
2019-01-26T03:25:52.939Z,99813.22
2019-01-26T03:28:21.193Z,99813.97
2019-01-26T03:30:49.488Z,99817.70
2019-01-26T03:33:17.733Z,99813.00
2019-01-26T03:35:45.988Z,99812.98
2019-01-26T03:38:14.236Z,99812.45
2019-01-26T03:40:42.523Z,99817.99
2019-01-26T03:43:10.807Z,99813.11
2019-01-26T03:45:39.076Z,99813.64
2019-01-26T03:48:07.334Z,99814.94
2019-01-26T03:50:35.599Z,99821.73
2019-01-26T03:53:04.522Z,99815.64
2019-01-26T03:55:32.779Z,99815.59
2019-01-26T03:58:01.042Z,99818.83
2019-01-26T04:00:29.325Z,99813.80
2019-01-26T04:02:57.601Z,99808.02
2019-01-26T04:08:27.432Z,99805.81
2019-01-26T04:10:55.678Z,99817.61
2019-01-26T04:13:23.942Z,99802.45
2019-01-26T04:15:52.201Z,99805.77
2019-01-26T04:18:20.504Z,99809.34
2019-01-26T04:20:48.788Z,99805.02
2019-01-26T04:23:17.051Z,99798.48
2019-01-26T04:25:45.318Z,99802.71
2019-01-26T04:30:52.534Z,99795.72
2019-01-26T04:33:20.826Z,99798.89
2019-01-26T04:35:49.059Z,99798.20
2019-01-26T04:38:17.308Z,99796.36
2019-01-26T04:40:45.585Z,99792.55
2019-01-26T04:43:13.840Z,99798.75
2019-01-26T04:45:42.117Z,99805.78
2019-01-26T04:48:10.368Z,99797.80
2019-01-26T04:50:38.635Z,99796.91
2019-01-26T04:53:06.911Z,99803.25
2019-01-26T04:55:35.168Z,99790.70
2019-01-26T04:58:03.466Z,99793.94
2019-01-26T05:00:31.720Z,99790.27
2019-01-26T05:03:00.009Z,99785.05
2019-01-26T05:05:28.281Z,99785.11
2019-01-26T05:07:56.523Z,99784.61
2019-01-26T05:10:24.775Z,99791.00
2019-01-26T05:12:53.791Z,99787.00
2019-01-26T05:15:22.071Z,99786.19
2019-01-26T05:17:50.358Z,99779.80
2019-01-26T05:20:58.673Z,99785.00
2019-01-26T05:23:26.940Z,99781.14
2019-01-26T05:25:55.215Z,99772.95
2019-01-26T05:28:23.482Z,99776.27
2019-01-26T05:30:51.757Z,99772.19
2019-01-26T05:33:20.012Z,99771.45
2019-01-26T05:35:48.285Z,99767.53
2019-01-26T05:38:16.567Z,99771.95
2019-01-26T05:40:44.832Z,99766.05
2019-01-26T05:43:13.110Z,99768.69
2019-01-26T05:45:41.385Z,99765.11
2019-01-26T05:48:09.644Z,99769.92
2019-01-26T05:50:37.921Z,99770.55
2019-01-26T05:53:06.174Z,99768.76
2019-01-26T05:55:34.449Z,99770.31
2019-01-26T05:58:02.713Z,99773.23
2019-01-26T06:03:09.926Z,99767.13
2019-01-26T06:05:38.185Z,99759.00
2019-01-26T06:08:06.445Z,99760.18
2019-01-26T06:10:34.708Z,99755.81
2019-01-26T06:13:03.029Z,99752.44
2019-01-26T06:15:31.289Z,99747.63
2019-01-26T06:17:59.558Z,99741.73
2019-01-26T06:20:27.849Z,99747.67
2019-01-26T06:22:56.092Z,99744.09
2019-01-26T06:25:24.348Z,99744.20
2019-01-26T06:27:52.615Z,99745.94
2019-01-26T06:31:00.913Z,99738.43
2019-01-26T06:33:29.182Z,99735.20
2019-01-26T06:35:57.443Z,99732.12
2019-01-26T06:38:25.713Z,99725.78
2019-01-26T06:40:53.978Z,99735.66
2019-01-26T06:43:22.234Z,99726.91
2019-01-26T06:45:50.498Z,99731.11
2019-01-26T06:48:18.749Z,99731.73
2019-01-26T06:50:47.023Z,99731.22
2019-01-26T06:53:15.283Z,99737.28
2019-01-26T06:55:43.545Z,99731.11
2019-01-26T06:58:11.807Z,99728.70
2019-01-26T07:00:40.058Z,99731.08
2019-01-26T07:03:08.317Z,99721.02
2019-01-26T07:05:55.700Z,99714.00
2019-01-26T07:08:24.018Z,99711.25
2019-01-26T07:10:52.385Z,99719.05
2019-01-26T07:13:20.635Z,99727.07
2019-01-26T07:15:48.886Z,99725.34
2019-01-26T07:18:17.156Z,99729.93
2019-01-26T07:20:45.427Z,99723.38
2019-01-26T07:23:25.891Z,99723.20
2019-01-26T07:25:55.191Z,99724.88
2019-01-26T07:28:42.798Z,99719.91
2019-01-26T07:31:11.055Z,99716.64
2019-01-26T07:33:40.362Z,99716.92
2019-01-26T07:36:08.610Z,99711.77
2019-01-26T07:38:36.863Z,99710.02
2019-01-26T07:41:05.120Z,99715.30
2019-01-26T07:43:33.402Z,99716.25
2019-01-26T07:46:01.654Z,99711.53
2019-01-26T07:48:29.918Z,99709.41
2019-01-26T07:50:58.206Z,99712.48
2019-01-26T07:53:26.474Z,99712.48
2019-01-26T07:55:54.737Z,99709.06
2019-01-26T07:58:22.997Z,99706.88
2019-01-26T08:00:51.259Z,99701.41
2019-01-26T08:03:19.533Z,99698.84
2019-01-26T08:05:47.775Z,99699.14
2019-01-26T08:08:16.047Z,99694.71
2019-01-26T08:10:44.314Z,99702.78
2019-01-26T08:13:12.555Z,99707.95
2019-01-26T08:15:40.841Z,99710.02
2019-01-26T08:18:09.115Z,99712.48
2019-01-26T08:20:37.398Z,99715.80
2019-01-26T08:23:05.636Z,99717.03
2019-01-26T08:25:33.899Z,99714.36
2019-01-26T08:28:02.179Z,99714.64
2019-01-26T08:30:30.515Z,99715.19
2019-01-26T08:32:58.779Z,99720.47
2019-01-26T08:35:27.053Z,99717.44
2019-01-26T08:37:55.294Z,99709.25
2019-01-26T08:40:23.558Z,99704.69
2019-01-26T08:42:51.823Z,99715.08
2019-01-26T08:45:20.119Z,99716.70
2019-01-26T08:48:31.376Z,99708.24
2019-01-26T08:50:58.346Z,99704.25
2019-01-26T08:53:26.615Z,99704.25
2019-01-26T08:55:54.877Z,99706.99
2019-01-26T08:58:23.153Z,99700.33
2019-01-26T09:00:51.405Z,99703.96
2019-01-26T09:08:37.572Z,99711.02
2019-01-26T09:11:05.900Z,99707.41
2019-01-26T09:13:34.181Z,99710.30
2019-01-26T09:16:02.433Z,99704.89
2019-01-26T09:18:30.701Z,99705.73
2019-01-26T09:20:58.956Z,99701.08
2019-01-26T09:23:27.202Z,99703.84
2019-01-26T09:25:55.486Z,99706.03
2019-01-26T09:28:23.741Z,99704.02
2019-01-26T09:30:51.988Z,99718.22
2019-01-26T09:33:20.323Z,99713.59
2019-01-26T09:35:48.613Z,99707.02
2019-01-26T09:38:16.869Z,99704.37
2019-01-26T09:40:45.122Z,99700.56
2019-01-26T09:43:13.399Z,99706.80
2019-01-26T09:45:41.641Z,99703.72
2019-01-26T09:48:09.934Z,99707.65
2019-01-26T09:50:38.193Z,99710.30
2019-01-26T09:53:06.455Z,99709.16
2019-01-26T09:55:34.711Z,99699.45
2019-01-26T09:58:02.978Z,99695.58
2019-01-26T10:00:31.298Z,99702.36
2019-01-26T10:02:59.561Z,99694.34
2019-01-26T10:05:27.846Z,99698.03
2019-01-26T10:07:56.077Z,99697.52
2019-01-26T10:10:24.411Z,99693.83
2019-01-26T10:12:52.725Z,99687.58
2019-01-26T10:16:01.054Z,99682.98
2019-01-26T10:18:29.311Z,99683.64
2019-01-26T10:20:57.583Z,99680.52
2019-01-26T10:23:25.898Z,99679.63
2019-01-26T10:25:54.163Z,99687.84
2019-01-26T10:28:22.424Z,99686.28
2019-01-26T10:33:29.640Z,99688.87
2019-01-26T10:36:17.050Z,99682.16
2019-01-26T10:41:53.418Z,99687.78
2019-01-26T10:47:10.651Z,99686.20
2019-01-26T10:49:38.913Z,99682.67
2019-01-26T10:52:07.243Z,99687.64
2019-01-26T10:54:35.508Z,99687.05
2019-01-26T11:00:45.436Z,99689.23
2019-01-26T11:03:13.710Z,99680.92
2019-01-26T11:05:41.959Z,99683.61
2019-01-26T11:08:10.235Z,99682.52
2019-01-26T11:10:38.516Z,99681.41
2019-01-26T11:13:06.774Z,99680.00
2019-01-26T11:15:35.035Z,99678.70
2019-01-26T11:18:03.353Z,99680.16
2019-01-26T11:20:31.819Z,99678.93
2019-01-26T11:23:00.071Z,99679.05
2019-01-26T11:25:28.385Z,99681.13
2019-01-26T11:27:56.663Z,99675.80
2019-01-26T11:33:03.885Z,99676.13
2019-01-26T11:35:32.138Z,99677.58
2019-01-26T11:38:00.408Z,99673.56
2019-01-26T11:40:28.680Z,99671.82
2019-01-26T11:42:57.042Z,99670.66
2019-01-26T11:45:44.427Z,99669.81
2019-01-26T11:53:30.601Z,99658.44
2019-01-26T11:56:17.991Z,99654.69
2019-01-26T11:58:46.239Z,99648.55
2019-01-26T12:01:33.614Z,99664.51
2019-01-26T12:04:20.988Z,99646.03
2019-01-26T12:09:28.210Z,99643.31
2019-01-26T12:11:56.470Z,99641.55
2019-01-26T12:14:24.772Z,99642.66
2019-01-26T12:16:53.016Z,99645.33
2019-01-26T12:19:22.474Z,99641.55
2019-01-26T12:21:51.255Z,99633.61
2019-01-26T12:24:19.522Z,99641.00
2019-01-26T12:26:47.787Z,99639.80
2019-01-26T12:29:16.040Z,99639.96
2019-01-26T12:31:44.303Z,99639.42
2019-01-26T12:34:12.585Z,99643.12
2019-01-26T12:36:40.853Z,99644.09
2019-01-26T12:39:49.149Z,99640.08
2019-01-26T12:42:17.406Z,99641.44
2019-01-26T12:44:45.690Z,99637.17
2019-01-26T12:47:17.038Z,99638.64
2019-01-26T12:49:43.937Z,99636.38
2019-01-26T12:52:12.194Z,99630.81
2019-01-26T12:54:40.456Z,99634.52
2019-01-26T12:57:08.722Z,99628.64
2019-01-26T12:59:36.994Z,99629.94
2019-01-26T13:02:05.494Z,99626.87
2019-01-26T13:04:53.084Z,99623.40
2019-01-26T13:07:21.348Z,99623.40
2019-01-26T13:09:49.621Z,99621.00
2019-01-26T13:12:17.890Z,99620.61
2019-01-26T13:14:46.171Z,99614.84
2019-01-26T13:17:14.448Z,99614.77
2019-01-26T13:19:43.795Z,99618.41
2019-01-26T13:22:12.111Z,99609.89
2019-01-26T13:24:40.410Z,99610.58
2019-01-26T13:27:08.682Z,99611.49
2019-01-26T13:29:36.957Z,99606.78
2019-01-26T13:32:05.298Z,99597.27
2019-01-26T13:34:33.579Z,99599.17
2019-01-26T13:37:01.876Z,99602.21
2019-01-26T13:39:30.131Z,99595.59
2019-01-26T13:41:58.410Z,99596.30
2019-01-26T13:44:26.759Z,99600.90
2019-01-26T13:46:55.024Z,99588.81
2019-01-26T13:49:23.349Z,99597.55
2019-01-26T13:51:51.949Z,99596.32
2019-01-26T13:54:20.242Z,99593.14
2019-01-26T13:56:48.573Z,99592.17
2019-01-26T13:59:16.857Z,99584.09
2019-01-26T14:01:45.204Z,99587.06
2019-01-26T14:04:13.507Z,99581.64
2019-01-26T14:06:41.858Z,99576.79
2019-01-26T14:09:49.172Z,99580.85
2019-01-26T14:12:17.458Z,99575.16
2019-01-26T14:14:45.761Z,99573.31
2019-01-26T14:17:14.083Z,99574.06
2019-01-26T14:19:42.441Z,99579.39
2019-01-26T14:22:13.590Z,99574.14
2019-01-26T14:25:03.197Z,99567.47
2019-01-26T14:36:56.205Z,99551.45
2019-01-26T14:39:39.900Z,99536.08
2019-01-26T14:45:52.913Z,99548.07
2019-01-26T14:48:21.184Z,99547.27
2019-01-26T14:53:38.775Z,99546.42
2019-01-26T14:56:07.100Z,99549.33
2019-01-26T14:58:35.385Z,99539.16
2019-01-26T15:01:06.435Z,99544.59
2019-01-26T15:03:34.750Z,99542.61
2019-01-26T15:06:03.002Z,99540.62
2019-01-26T15:08:31.262Z,99541.91
2019-01-26T15:10:59.518Z,99538.80
2019-01-26T15:13:27.911Z,99522.97
2019-01-26T15:15:57.917Z,99525.41
2019-01-26T15:18:28.894Z,99528.31
2019-01-26T15:20:57.574Z,99521.78
2019-01-26T15:23:25.834Z,99518.95
2019-01-26T15:25:54.102Z,99517.13
2019-01-26T15:28:22.389Z,99516.64
2019-01-26T15:30:53.448Z,99512.83
2019-01-26T15:33:21.699Z,99514.96
2019-01-26T15:35:49.984Z,99510.95
2019-01-26T15:38:19.206Z,99510.17
2019-01-26T15:40:47.474Z,99503.33
2019-01-26T15:43:15.725Z,99502.68
2019-01-26T15:45:44.469Z,99499.64
2019-01-26T15:48:12.725Z,99503.39
2019-01-26T15:50:41.992Z,99493.58
2019-01-26T15:53:10.286Z,99498.22
2019-01-26T15:55:38.545Z,99495.45
2019-01-26T15:58:06.892Z,99492.09
2019-01-26T16:00:43.310Z,99488.72
2019-01-26T16:03:11.717Z,99482.34
2019-01-26T16:05:39.974Z,99485.25
2019-01-26T16:08:08.292Z,99477.95
2019-01-26T16:10:36.600Z,99472.64
2019-01-26T16:13:05.021Z,99478.20
2019-01-26T16:15:35.820Z,99472.20
2019-01-26T16:18:05.640Z,99477.23
2019-01-26T16:20:34.195Z,99473.34
2019-01-26T16:23:09.027Z,99469.92
2019-01-26T16:25:32.601Z,99467.73
2019-01-26T16:28:00.860Z,99468.56
2019-01-26T16:30:31.154Z,99462.70
2019-01-26T16:32:59.706Z,99461.27
2019-01-26T16:35:28.158Z,99458.68
2019-01-26T16:37:58.316Z,99452.75
2019-01-26T16:40:29.315Z,99449.11
2019-01-26T16:43:01.502Z,99449.50
2019-01-26T16:45:32.767Z,99451.59
2019-01-26T16:48:04.504Z,99447.92
2019-01-26T16:50:32.799Z,99441.53
2019-01-26T16:53:01.075Z,99445.52
2019-01-26T16:55:29.336Z,99441.19
2019-01-26T16:57:57.617Z,99438.84
2019-01-26T17:00:40.794Z,99439.69
2019-01-26T17:03:10.660Z,99438.53
2019-01-26T17:05:39.148Z,99424.95
2019-01-26T17:08:08.043Z,99427.05
2019-01-26T17:10:36.510Z,99421.17
2019-01-26T17:13:04.708Z,99424.88
2019-01-26T17:15:32.997Z,99414.47
2019-01-26T17:18:01.296Z,99415.17
2019-01-26T17:20:37.336Z,99407.66
2019-01-26T17:23:08.315Z,99405.22
2019-01-26T17:25:36.624Z,99407.52
2019-01-26T17:28:08.375Z,99396.34
2019-01-26T17:30:38.882Z,99397.12
2019-01-26T17:33:07.901Z,99390.27
2019-01-26T17:35:37.566Z,99390.27
2019-01-26T17:38:06.433Z,99387.69
2019-01-26T17:40:34.986Z,99382.66
2019-01-26T17:43:03.289Z,99381.41
2019-01-26T17:45:31.581Z,99378.38
2019-01-26T17:47:59.947Z,99376.48
2019-01-26T17:50:29.044Z,99373.09
2019-01-26T17:52:57.325Z,99370.27
2019-01-26T17:55:25.600Z,99364.05
2019-01-26T17:57:55.941Z,99358.98
2019-01-26T18:00:34.164Z,99359.73
2019-01-26T18:03:03.933Z,99359.73
2019-01-26T18:05:33.948Z,99356.62
2019-01-26T18:08:02.254Z,99355.88
2019-01-26T18:10:30.669Z,99345.21
2019-01-26T18:12:59.910Z,99343.24
2019-01-26T18:15:29.189Z,99338.08
2019-01-26T18:17:58.190Z,99334.58
2019-01-26T18:20:29.777Z,99328.27
2019-01-26T18:22:59.141Z,99327.59
2019-01-26T18:25:29.073Z,99326.61
2019-01-26T18:27:57.429Z,99325.83
2019-01-26T18:30:30.535Z,99326.97
2019-01-26T18:32:58.887Z,99317.08
2019-01-26T18:35:28.705Z,99313.05
2019-01-26T18:37:57.021Z,99312.52
2019-01-26T18:40:28.405Z,99319.59
2019-01-26T18:42:56.688Z,99313.72
2019-01-26T18:45:29.854Z,99313.41
2019-01-26T18:47:58.274Z,99309.42
2019-01-26T18:50:35.075Z,99301.16
2019-01-26T18:53:03.471Z,99298.16
2019-01-26T18:55:31.732Z,99292.98
2019-01-26T18:58:00.022Z,99287.95
2019-01-26T19:00:31.126Z,99287.00
2019-01-26T19:03:23.383Z,99286.39
2019-01-26T19:05:53.492Z,99280.23
2019-01-26T19:08:22.981Z,99271.16
2019-01-26T19:10:51.289Z,99269.03
2019-01-26T19:13:19.568Z,99265.36
2019-01-26T19:15:47.863Z,99261.16
2019-01-26T19:18:19.659Z,99265.06
2019-01-26T19:20:47.953Z,99262.44
2019-01-26T19:23:16.503Z,99268.92
2019-01-26T19:25:44.801Z,99267.23
2019-01-26T19:28:13.084Z,99264.52
2019-01-26T19:30:41.430Z,99265.96
2019-01-26T19:33:09.800Z,99258.86
2019-01-26T19:35:38.111Z,99256.14
2019-01-26T19:38:06.439Z,99253.77
2019-01-26T19:40:35.677Z,99252.38
2019-01-26T19:43:05.503Z,99242.02
2019-01-26T19:45:33.840Z,99236.97
2019-01-26T19:48:03.173Z,99235.30
2019-01-26T19:50:31.471Z,99239.34
2019-01-26T19:52:59.785Z,99230.66
2019-01-26T19:55:28.082Z,99230.12
2019-01-26T19:57:56.419Z,99226.52
2019-01-26T20:00:26.965Z,99223.27
2019-01-26T20:02:55.259Z,99219.00
2019-01-26T20:05:24.827Z,99216.95
2019-01-26T20:07:53.183Z,99219.47
2019-01-26T20:10:22.345Z,99206.59
2019-01-26T20:12:50.619Z,99206.52
2019-01-26T20:15:21.252Z,99200.04
2019-01-26T20:17:49.698Z,99197.07
2019-01-26T20:20:29.563Z,99195.78
2019-01-26T20:22:57.911Z,99190.77
2019-01-26T20:25:26.203Z,99185.87
2019-01-26T20:27:54.507Z,99183.28
2019-01-26T20:30:25.445Z,99186.05
2019-01-26T20:32:53.865Z,99182.70
2019-01-26T20:35:22.227Z,99179.66
2019-01-26T20:37:50.518Z,99173.27
2019-01-26T20:40:19.586Z,99162.36
2019-01-26T20:42:47.900Z,99168.83
2019-01-26T20:45:18.987Z,99172.34
2019-01-26T20:47:47.105Z,99153.30
2019-01-26T20:50:15.388Z,99144.23
2019-01-26T20:52:43.991Z,99142.77
2019-01-26T20:55:13.110Z,99137.50
2019-01-26T20:57:41.418Z,99140.72
2019-01-26T21:00:18.742Z,99135.28
2019-01-26T21:02:47.108Z,99132.86
2019-01-26T21:05:15.423Z,99131.20
2019-01-26T21:07:45.113Z,99127.56
2019-01-26T21:10:25.584Z,99125.03
2019-01-26T21:12:53.897Z,99123.44
2019-01-26T21:15:23.215Z,99124.73
2019-01-26T21:17:51.530Z,99125.23
2019-01-26T21:20:24.425Z,99118.84
2019-01-26T21:22:52.806Z,99118.38
2019-01-26T21:25:21.118Z,99111.66
2019-01-26T21:27:49.428Z,99109.13
2019-01-26T21:30:25.762Z,99106.56
2019-01-26T21:32:54.312Z,99103.05
2019-01-26T21:35:22.850Z,99106.19
2019-01-26T21:37:51.150Z,99102.73
2019-01-26T21:40:27.215Z,99100.89
2019-01-26T21:42:55.502Z,99091.20
2019-01-26T21:45:23.887Z,99089.91
2019-01-26T21:47:52.190Z,99086.66
2019-01-26T21:50:25.447Z,99081.27
2019-01-26T21:52:53.775Z,99080.01
2019-01-26T21:55:22.051Z,99079.31
2019-01-26T21:57:50.379Z,99073.30
2019-01-26T22:00:20.881Z,99075.14
2019-01-26T22:02:49.293Z,99069.95
2019-01-26T22:05:17.599Z,99067.66
2019-01-26T22:07:45.898Z,99067.17
2019-01-26T22:10:16.515Z,99065.41
2019-01-26T22:12:45.794Z,99057.61
2019-01-26T22:15:19.432Z,99049.59
2019-01-26T22:17:47.716Z,99047.64
2019-01-26T22:20:18.957Z,99048.84
2019-01-26T22:22:47.925Z,99030.64
2019-01-26T22:25:16.377Z,99034.95
2019-01-26T22:27:44.713Z,99032.02
2019-01-26T22:30:16.011Z,99031.19
2019-01-26T22:32:44.367Z,99031.61
2019-01-26T22:35:14.337Z,99030.98
2019-01-26T22:37:42.605Z,99028.94
2019-01-26T22:40:16.753Z,99019.05
2019-01-26T22:42:45.088Z,99011.58
2019-01-26T22:45:13.456Z,99012.03
2019-01-26T22:47:41.731Z,99014.08
2019-01-26T22:50:13.288Z,99016.84
2019-01-26T22:52:41.660Z,98999.94
2019-01-26T22:55:12.311Z,99001.14
2019-01-26T22:57:41.222Z,98997.34
2019-01-26T23:00:28.596Z,98995.51
2019-01-26T23:02:56.959Z,98991.72
2019-01-26T23:05:50.576Z,98982.83
2019-01-26T23:08:22.039Z,98977.28
2019-01-26T23:10:53.474Z,98968.43
2019-01-26T23:13:24.634Z,98961.76
2019-01-26T23:16:16.043Z,98965.55
2019-01-26T23:19:13.041Z,98956.58
2019-01-26T23:22:06.930Z,98951.16
2019-01-26T23:24:57.699Z,98946.03
2019-01-26T23:27:46.862Z,98948.73
2019-01-26T23:30:29.437Z,98937.47
2019-01-26T23:32:57.744Z,98932.58
2019-01-26T23:35:26.038Z,98928.10
2019-01-26T23:37:54.335Z,98923.05
2019-01-26T23:40:22.647Z,98921.03
2019-01-26T23:42:53.279Z,98918.81
2019-01-26T23:45:21.571Z,98904.29
2019-01-26T23:47:49.960Z,98902.99
2019-01-26T23:50:19.097Z,98899.66
2019-01-26T23:52:47.377Z,98897.75
2019-01-26T23:55:15.684Z,98888.77
2019-01-26T23:57:43.963Z,98883.60
